Time;durP1;ratioP1;P1;durP2;ratioP2;P2;SDS_P1;SDS_P2;PMS_P1;PMS_P2;Temp;Humidity;BMP_temperature;BMP_pressure;BME280_temperature;BME280_humidity;BME280_pressure;Samples;Min_cycle;Max_cycle;Signal;HPM_P1;HPM_P2
2021/01/13 00:03:44;;;;;;;5.72;2.22;;;1.50;1.00;;;;;;5032296;28;20227;-88
2021/01/13 00:06:17;;;;;;;6.95;3.15;;;1.40;1.00;;;;;;5081493;28;20238;-88
2021/01/13 00:08:44;;;;;;;8.27;2.45;;;1.30;1.00;;;;;;5075992;28;20239;-88
2021/01/13 00:19:24;;;;;;;4.13;2.85;;;1.20;1.00;;;;;;5054736;28;20235;-89
2021/01/13 00:22:48;;;;;;;4.38;1.75;;;1.20;1.00;;;;;;5034401;28;20852;-89
2021/01/13 00:25:18;;;;;;;7.97;2.05;;;1.20;1.00;;;;;;5068800;28;20235;-88
2021/01/13 00:27:45;;;;;;;4.97;1.77;;;1.10;1.00;;;;;;5069093;28;20225;-89
2021/01/13 00:30:14;;;;;;;5.65;2.70;;;1.10;1.00;;;;;;5063310;28;20236;-88
2021/01/13 00:32:44;;;;;;;11.05;2.20;;;1.10;1.00;;;;;;5062345;28;20231;-89
2021/01/13 00:35:13;;;;;;;4.03;2.30;;;1.10;1.00;;;;;;5061107;28;20237;-89
2021/01/13 00:37:43;;;;;;;4.25;1.75;;;1.10;1.00;;;;;;5083317;28;20229;-89
2021/01/13 00:40:13;;;;;;;5.38;1.52;;;1.10;1.00;;;;;;5072710;28;20216;-89
2021/01/13 00:42:46;;;;;;;10.40;2.05;;;1.10;1.00;;;;;;5079918;28;20213;-90
2021/01/13 00:45:30;;;;;;;7.57;2.95;;;1.10;1.00;;;;;;5076846;28;20237;-89
2021/01/13 00:48:00;;;;;;;5.25;1.80;;;1.10;1.00;;;;;;5085780;28;20310;-88
2021/01/13 00:50:32;;;;;;;7.47;2.95;;;1.10;1.00;;;;;;5094160;28;20227;-90
2021/01/13 00:53:01;;;;;;;7.45;2.00;;;1.10;1.00;;;;;;5075196;28;20213;-89
2021/01/13 00:55:30;;;;;;;4.05;1.75;;;1.10;1.00;;;;;;5083211;28;20281;-90
2021/01/13 00:58:06;;;;;;;5.90;2.50;;;1.10;1.00;;;;;;5083692;28;20252;-89
2021/01/13 01:00:38;;;;;;;6.38;1.98;;;1.10;1.00;;;;;;5063637;28;20225;-89
2021/01/13 01:03:05;;;;;;;4.78;1.95;;;1.20;1.00;;;;;;5060897;28;21121;-88
2021/01/13 01:05:32;;;;;;;5.45;2.22;;;1.20;1.00;;;;;;5059942;28;20232;-89
2021/01/13 01:08:06;;;;;;;5.40;1.73;;;1.20;1.00;;;;;;5082695;28;20756;-89
2021/01/13 01:10:36;;;;;;;5.82;1.70;;;1.20;1.00;;;;;;5069727;28;20257;-89
2021/01/13 01:13:13;;;;;;;3.15;1.80;;;1.20;1.00;;;;;;5064787;28;20229;-89
2021/01/13 01:15:40;;;;;;;5.50;2.13;;;1.10;1.00;;;;;;5058824;28;20228;-89
2021/01/13 01:18:07;;;;;;;5.15;2.42;;;1.20;1.00;;;;;;5059329;28;20229;-89
2021/01/13 01:20:34;;;;;;;2.95;2.65;;;1.20;1.00;;;;;;5075061;28;20240;-88
2021/01/13 01:23:03;;;;;;;6.32;2.70;;;1.30;1.00;;;;;;5059077;28;20229;-89
2021/01/13 01:25:35;;;;;;;6.35;2.53;;;1.20;1.00;;;;;;5087771;28;20233;-88
2021/01/13 01:28:04;;;;;;;4.97;2.13;;;1.30;1.00;;;;;;5078786;28;20233;-88
2021/01/13 01:30:33;;;;;;;3.05;1.67;;;1.30;1.00;;;;;;5053854;28;20229;-87
2021/01/13 01:33:01;;;;;;;3.97;1.70;;;1.30;1.00;;;;;;5073302;28;20320;-86
2021/01/13 01:35:28;;;;;;;8.13;2.95;;;1.30;1.00;;;;;;5079899;28;20251;-87
2021/01/13 01:37:54;;;;;;;4.20;2.25;;;1.30;1.00;;;;;;5061130;28;20233;-88
2021/01/13 01:40:23;;;;;;;4.60;3.13;;;1.30;1.00;;;;;;5061501;28;20225;-89
2021/01/13 01:42:52;;;;;;;6.97;2.05;;;1.20;1.00;;;;;;5076827;28;20225;-89
2021/01/13 01:45:22;;;;;;;4.53;2.28;;;1.20;1.00;;;;;;5080038;28;20225;-89
2021/01/13 01:48:14;;;;;;;6.00;2.70;;;1.20;1.00;;;;;;5064566;28;20220;-88
2021/01/13 01:50:43;;;;;;;5.63;1.80;;;1.30;1.00;;;;;;5081077;28;20255;-89
2021/01/13 01:53:22;;;;;;;8.63;3.08;;;1.30;1.00;;;;;;5060715;28;20232;-88
2021/01/13 01:55:59;;;;;;;8.73;2.88;;;1.40;1.00;;;;;;5070050;28;20226;-90
2021/01/13 01:58:28;;;;;;;6.65;2.90;;;1.40;1.00;;;;;;5064662;28;20225;-88
2021/01/13 02:00:59;;;;;;;6.22;2.80;;;1.50;1.00;;;;;;5095551;28;20217;-89
2021/01/13 02:03:30;;;;;;;8.50;2.90;;;1.50;1.00;;;;;;5092105;28;20271;-89
2021/01/13 02:05:59;;;;;;;7.13;3.13;;;1.60;1.00;;;;;;5086426;28;20214;-87
2021/01/13 02:08:29;;;;;;;9.68;4.03;;;1.60;1.00;;;;;;5073189;28;20238;-90
2021/01/13 02:10:58;;;;;;;7.05;4.82;;;1.60;1.00;;;;;;5082184;28;20213;-90
2021/01/13 02:13:36;;;;;;;4.13;3.38;;;1.60;1.00;;;;;;5074290;28;20217;-90
2021/01/13 02:16:07;;;;;;;7.85;3.03;;;1.60;1.00;;;;;;5103767;28;20220;-90
2021/01/13 02:18:57;;;;;;;3.90;3.10;;;1.60;1.00;;;;;;5103869;27;20225;-90
2021/01/13 02:21:31;;;;;;;4.18;3.13;;;1.60;1.00;;;;;;5087041;28;20237;-88
2021/01/13 02:24:43;;;;;;;7.65;3.20;;;1.70;1.00;;;;;;5092724;28;20236;-89
2021/01/13 02:27:53;;;;;;;8.20;3.65;;;1.80;1.00;;;;;;5089476;28;20297;-90
2021/01/13 02:30:30;;;;;;;7.63;3.00;;;1.80;1.00;;;;;;5089521;28;20281;-89
2021/01/13 02:33:04;;;;;;;10.18;3.80;;;1.90;1.00;;;;;;5073089;28;20224;-89
2021/01/13 02:35:57;;;;;;;4.75;2.97;;;1.90;1.00;;;;;;5066821;28;20228;-89
2021/01/13 02:38:59;;;;;;;4.38;3.33;;;1.90;1.00;;;;;;5096843;28;20292;-89
2021/01/13 02:45:05;;;;;;;10.02;3.88;;;2.00;1.00;;;;;;5046810;28;20221;-88
2021/01/13 02:48:11;;;;;;;4.82;3.33;;;2.00;1.00;;;;;;5061046;28;20234;-88
2021/01/13 02:53:55;;;;;;;5.88;3.45;;;2.00;1.00;;;;;;5060269;28;21324;-88
2021/01/13 02:56:44;;;;;;;6.45;3.10;;;2.10;1.00;;;;;;5069332;28;20225;-88
2021/01/13 02:59:13;;;;;;;8.32;3.35;;;2.10;1.00;;;;;;5061399;28;20221;-88
2021/01/13 03:01:43;;;;;;;9.98;3.80;;;2.10;1.00;;;;;;5092011;28;20308;-88
2021/01/13 03:04:11;;;;;;;10.50;3.63;;;2.10;1.00;;;;;;5076776;28;20305;-87
2021/01/13 03:06:41;;;;;;;9.32;3.50;;;2.20;1.00;;;;;;5063235;28;20244;-87
2021/01/13 03:09:09;;;;;;;8.90;3.60;;;2.10;1.00;;;;;;5057089;28;20251;-88
2021/01/13 03:11:39;;;;;;;6.47;3.13;;;2.10;1.00;;;;;;5084537;28;20663;-88
2021/01/13 03:14:15;;;;;;;7.57;2.80;;;2.10;1.00;;;;;;5087380;28;20591;-89
2021/01/13 03:16:50;;;;;;;6.10;2.22;;;2.10;1.00;;;;;;5066340;28;20254;-88
2021/01/13 03:19:20;;;;;;;7.90;3.42;;;2.10;1.00;;;;;;5058292;28;21104;-88
2021/01/13 03:21:56;;;;;;;5.88;2.97;;;2.10;1.00;;;;;;5074100;28;20220;-88
2021/01/13 03:24:36;;;;;;;7.82;3.17;;;2.10;1.00;;;;;;5100306;28;20231;-86
2021/01/13 03:27:06;;;;;;;6.13;2.85;;;2.10;1.00;;;;;;5081163;28;20219;-88
2021/01/13 03:29:37;;;;;;;4.93;2.65;;;2.20;1.00;;;;;;5074996;28;20214;-89
2021/01/13 03:32:13;;;;;;;4.40;2.45;;;2.10;1.00;;;;;;5059370;28;20220;-90
2021/01/13 03:35:12;;;;;;;7.70;3.00;;;2.00;1.00;;;;;;5083861;28;20221;-88
2021/01/13 03:37:59;;;;;;;5.88;2.95;;;2.10;1.00;;;;;;5062517;28;20240;-87
2021/01/13 03:40:29;;;;;;;4.28;2.85;;;2.10;1.00;;;;;;5061286;28;20224;-88
2021/01/13 03:43:01;;;;;;;6.22;2.63;;;2.10;1.00;;;;;;5062399;28;20248;-88
2021/01/13 03:45:37;;;;;;;8.43;2.83;;;2.10;1.00;;;;;;5082089;28;20240;-88
2021/01/13 03:48:20;;;;;;;4.55;2.40;;;2.10;1.00;;;;;;5075526;28;20225;-89
2021/01/13 03:50:48;;;;;;;14.68;3.75;;;2.10;1.00;;;;;;5063608;28;20232;-88
2021/01/13 03:53:16;;;;;;;4.50;2.70;;;2.10;1.00;;;;;;5085804;28;20213;-88
2021/01/13 03:55:44;;;;;;;4.85;3.15;;;2.20;1.00;;;;;;5078241;28;20339;-87
2021/01/13 03:58:40;;;;;;;5.40;2.80;;;2.20;1.00;;;;;;5084419;28;20221;-87
2021/01/13 04:01:44;;;;;;;5.32;2.88;;;2.20;1.00;;;;;;5091970;28;20271;-87
2021/01/13 04:04:33;;;;;;;7.70;5.00;;;2.20;1.00;;;;;;5084758;28;20209;-88
2021/01/13 04:17:50;;;;;;;7.53;6.43;;;2.20;1.00;;;;;;5025394;28;20289;-87
2021/01/13 04:20:21;;;;;;;4.15;2.80;;;2.20;1.00;;;;;;5042588;28;20291;-88
2021/01/13 04:22:49;;;;;;;5.43;3.00;;;2.20;1.00;;;;;;5072825;28;20281;-88
2021/01/13 04:25:17;;;;;;;5.70;3.00;;;2.20;1.00;;;;;;5060904;28;20245;-88
2021/01/13 04:27:45;;;;;;;6.05;3.35;;;2.20;1.00;;;;;;5062172;28;20843;-90
2021/01/13 04:30:13;;;;;;;7.18;2.80;;;2.20;1.00;;;;;;5073250;28;20252;-89
2021/01/13 04:32:41;;;;;;;6.47;3.40;;;2.20;1.00;;;;;;5065833;28;20228;-89
2021/01/13 04:35:09;;;;;;;8.50;2.92;;;2.20;1.00;;;;;;5058113;28;20244;-87
2021/01/13 04:37:37;;;;;;;8.75;3.80;;;2.30;1.00;;;;;;5065090;28;20228;-86
2021/01/13 04:40:24;;;;;;;7.03;3.13;;;2.30;1.00;;;;;;5054518;28;21514;-87
2021/01/13 04:43:00;;;;;;;6.97;3.38;;;2.20;1.00;;;;;;5052799;28;20290;-87
2021/01/13 04:45:40;;;;;;;7.07;4.22;;;2.20;1.00;;;;;;5050542;28;20233;-86
2021/01/13 04:48:08;;;;;;;7.97;3.70;;;2.20;1.00;;;;;;5043146;28;20317;-87
2021/01/13 04:50:38;;;;;;;6.93;3.22;;;2.20;1.00;;;;;;5052143;28;20241;-87
2021/01/13 04:53:12;;;;;;;4.55;3.50;;;2.20;1.00;;;;;;5053399;28;20222;-86
2021/01/13 04:55:48;;;;;;;6.53;3.60;;;2.20;1.00;;;;;;5067910;28;20418;-88
2021/01/13 04:59:01;;;;;;;8.88;3.35;;;2.20;1.00;;;;;;5039946;28;20236;-88
2021/01/13 05:02:11;;;;;;;6.22;3.72;;;2.20;1.00;;;;;;5002197;28;20225;-89
2021/01/13 05:05:03;;;;;;;7.38;4.00;;;2.20;1.00;;;;;;5076220;28;20209;-88
2021/01/13 05:07:33;;;;;;;7.88;4.40;;;2.20;1.00;;;;;;5057088;28;20833;-88
2021/01/13 05:10:08;;;;;;;7.80;3.58;;;2.20;1.00;;;;;;5044050;28;20229;-88
2021/01/13 05:12:57;;;;;;;6.10;3.72;;;2.10;1.00;;;;;;5067074;28;20310;-88
2021/01/13 05:15:28;;;;;;;5.72;5.07;;;2.10;1.00;;;;;;5067559;28;20228;-88
2021/01/13 05:18:01;;;;;;;8.65;4.20;;;2.10;1.00;;;;;;5079600;28;20439;-89
2021/01/13 05:20:29;;;;;;;6.97;3.22;;;2.00;1.00;;;;;;5072952;28;20690;-88
2021/01/13 05:22:58;;;;;;;8.43;3.65;;;2.00;1.00;;;;;;5053592;28;20309;-88
2021/01/13 05:25:58;;;;;;;7.47;3.17;;;2.00;1.00;;;;;;5063991;28;20245;-89
2021/01/13 05:28:26;;;;;;;6.32;4.10;;;2.00;1.00;;;;;;5050835;28;20328;-87
2021/01/13 05:30:55;;;;;;;6.10;4.05;;;2.00;1.00;;;;;;5063550;28;20226;-88
2021/01/13 05:33:23;;;;;;;6.38;3.92;;;2.00;1.00;;;;;;5060116;28;20317;-87
2021/01/13 05:35:52;;;;;;;8.30;4.18;;;1.90;1.00;;;;;;5052689;28;20257;-87
2021/01/13 05:38:37;;;;;;;8.00;4.07;;;1.90;1.00;;;;;;5061126;28;20237;-87
2021/01/13 05:41:11;;;;;;;7.97;3.33;;;1.90;1.00;;;;;;5055975;28;20209;-88
2021/01/13 05:43:43;;;;;;;7.70;3.25;;;1.90;1.00;;;;;;5055759;28;20229;-88
2021/01/13 05:46:11;;;;;;;8.98;4.35;;;1.90;1.00;;;;;;5044643;28;20243;-87
2021/01/13 05:48:41;;;;;;;8.90;2.92;;;1.90;1.00;;;;;;5067325;28;21076;-87
2021/01/13 05:51:08;;;;;;;5.13;3.20;;;1.90;1.00;;;;;;5043239;28;20217;-87
2021/01/13 05:53:38;;;;;;;9.65;4.70;;;1.90;1.00;;;;;;5070495;28;20316;-88
2021/01/13 05:56:07;;;;;;;7.93;3.42;;;2.00;1.00;;;;;;5047796;28;20225;-87
2021/01/13 05:58:34;;;;;;;5.22;3.75;;;2.00;1.00;;;;;;5050306;28;20232;-88
2021/01/13 06:01:02;;;;;;;5.60;3.50;;;2.00;1.00;;;;;;5082838;28;20272;-87
2021/01/13 06:03:30;;;;;;;3.65;2.47;;;2.10;1.00;;;;;;5080805;28;20224;-89
2021/01/13 06:05:58;;;;;;;6.07;3.50;;;2.10;1.00;;;;;;5083429;28;20235;-89
2021/01/13 06:08:27;;;;;;;9.70;3.45;;;2.10;1.00;;;;;;5072087;28;20225;-87
2021/01/13 06:10:59;;;;;;;11.18;4.38;;;2.10;1.00;;;;;;5078246;28;20205;-87
2021/01/13 06:13:32;;;;;;;9.25;4.78;;;2.10;1.00;;;;;;5082085;28;20213;-88
2021/01/13 06:16:01;;;;;;;6.30;4.20;;;2.00;1.00;;;;;;5084792;28;20237;-87
2021/01/13 06:18:29;;;;;;;10.25;4.07;;;2.00;1.00;;;;;;5070331;28;20229;-88
2021/01/13 06:20:58;;;;;;;5.82;3.33;;;1.90;1.00;;;;;;5077119;28;20224;-87
2021/01/13 06:23:28;;;;;;;5.93;3.20;;;1.90;1.00;;;;;;5073932;28;20232;-85
2021/01/13 06:25:56;;;;;;;11.43;4.93;;;1.90;1.00;;;;;;5082213;28;20238;-85
2021/01/13 06:28:25;;;;;;;6.28;3.92;;;1.80;1.00;;;;;;5076734;28;20229;-86
2021/01/13 06:31:07;;;;;;;8.10;4.60;;;1.90;1.00;;;;;;5089814;28;20226;-84
2021/01/13 06:33:38;;;;;;;11.43;6.38;;;1.90;1.00;;;;;;5075937;28;20239;-86
2021/01/13 06:36:21;;;;;;;6.88;3.45;;;1.90;1.00;;;;;;5091762;28;20228;-86
2021/01/13 06:38:55;;;;;;;5.80;3.72;;;1.90;1.00;;;;;;5094378;28;20236;-84
2021/01/13 06:41:22;;;;;;;7.47;4.03;;;1.90;1.00;;;;;;5084478;28;20201;-87
2021/01/13 06:44:00;;;;;;;7.22;3.72;;;1.90;1.00;;;;;;5072138;28;20233;-86
2021/01/13 06:46:28;;;;;;;7.68;3.53;;;1.90;1.00;;;;;;5071203;28;20280;-85
2021/01/13 06:48:55;;;;;;;4.63;3.80;;;2.00;1.00;;;;;;5081631;28;20247;-86
2021/01/13 06:51:24;;;;;;;11.82;3.90;;;2.00;1.00;;;;;;5093646;28;20216;-87
2021/01/13 06:53:51;;;;;;;7.45;3.70;;;2.00;1.00;;;;;;5087191;28;20253;-88
2021/01/13 06:56:21;;;;;;;8.55;4.30;;;2.00;1.00;;;;;;5091390;28;20229;-85
2021/01/13 06:59:00;;;;;;;9.52;3.67;;;2.00;1.00;;;;;;5073753;28;20221;-85
2021/01/13 07:01:28;;;;;;;11.00;4.07;;;2.10;1.00;;;;;;5072189;28;20224;-86
2021/01/13 07:03:59;;;;;;;12.98;4.10;;;2.10;1.00;;;;;;5093393;28;20292;-86
2021/01/13 07:06:25;;;;;;;10.82;4.00;;;2.10;1.00;;;;;;5064244;28;20267;-86
2021/01/13 07:08:53;;;;;;;7.95;3.85;;;2.10;1.00;;;;;;5089150;28;20230;-86
2021/01/13 07:11:21;;;;;;;6.63;3.22;;;2.10;1.00;;;;;;5094752;28;20197;-85
2021/01/13 07:13:54;;;;;;;11.32;4.72;;;2.20;1.00;;;;;;5077361;28;20232;-84
2021/01/13 07:16:29;;;;;;;13.32;3.85;;;2.10;1.00;;;;;;5073206;28;20317;-84
2021/01/13 07:18:57;;;;;;;8.93;3.50;;;2.10;1.00;;;;;;5076516;28;20258;-84
2021/01/13 07:21:36;;;;;;;7.72;3.10;;;2.10;1.00;;;;;;5091663;28;20224;-85
2021/01/13 07:24:14;;;;;;;9.05;5.10;;;2.10;1.00;;;;;;5093143;28;20264;-86
2021/01/13 07:26:43;;;;;;;6.80;3.05;;;2.20;1.00;;;;;;5074212;28;20232;-88
2021/01/13 07:29:11;;;;;;;7.10;3.83;;;2.20;1.00;;;;;;5076686;28;20255;-85
2021/01/13 07:31:38;;;;;;;8.77;3.38;;;2.20;1.00;;;;;;5089917;28;20284;-88
2021/01/13 07:34:11;;;;;;;7.85;4.40;;;2.20;1.00;;;;;;5069324;28;20225;-87
2021/01/13 07:36:40;;;;;;;7.70;3.53;;;2.20;1.00;;;;;;5092692;28;20243;-86
2021/01/13 07:39:10;;;;;;;6.55;4.15;;;2.30;1.00;;;;;;5090820;28;20232;-88
2021/01/13 07:42:22;;;;;;;7.88;3.65;;;2.30;1.00;;;;;;5089641;28;20235;-86
2021/01/13 07:45:05;;;;;;;5.18;2.90;;;2.30;1.00;;;;;;5262271;22;20267;-86
2021/01/13 07:48:14;;;;;;;4.03;2.97;;;2.40;1.00;;;;;;5124682;27;20261;-85
2021/01/13 07:50:42;;;;;;;12.40;6.43;;;2.40;1.00;;;;;;5120920;27;20225;-85
2021/01/13 07:53:10;;;;;;;4.72;3.53;;;2.40;1.00;;;;;;5137745;27;20219;-86
2021/01/13 07:55:43;;;;;;;5.90;2.80;;;2.40;1.00;;;;;;5128938;27;20287;-88
2021/01/13 07:58:20;;;;;;;8.40;3.38;;;2.40;1.00;;;;;;5131498;27;20329;-88
2021/01/13 08:00:59;;;;;;;4.97;2.95;;;2.50;1.00;;;;;;5141710;27;20268;-86
2021/01/13 08:04:22;;;;;;;7.10;3.50;;;2.50;1.00;;;;;;5141003;27;20240;-86
2021/01/13 08:06:49;;;;;;;7.40;3.72;;;2.50;1.00;;;;;;5143031;27;20239;-85
2021/01/13 08:09:18;;;;;;;7.32;3.58;;;2.60;1.00;;;;;;5125733;27;20226;-87
2021/01/13 08:12:21;;;;;;;7.57;4.30;;;2.60;1.00;;;;;;5123864;27;20248;-87
2021/01/13 08:15:18;;;;;;;7.00;3.97;;;2.60;1.00;;;;;;5142163;27;20234;-85
2021/01/13 08:18:22;;;;;;;6.95;3.95;;;2.60;1.00;;;;;;5141238;27;20243;-85
2021/01/13 08:21:10;;;;;;;6.28;4.13;;;2.70;1.00;;;;;;5140430;27;20227;-85
2021/01/13 08:23:47;;;;;;;6.03;3.67;;;2.70;1.00;;;;;;5144964;27;20270;-84
2021/01/13 08:26:27;;;;;;;6.63;3.53;;;2.70;1.00;;;;;;5134969;27;20226;-85
2021/01/13 08:29:01;;;;;;;7.07;4.05;;;2.70;1.00;;;;;;5134603;27;20215;-85
2021/01/13 08:32:11;;;;;;;4.65;3.40;;;2.70;1.00;;;;;;5129960;27;20282;-88
2021/01/13 08:34:39;;;;;;;5.53;3.40;;;2.70;1.00;;;;;;5150117;27;20268;-87
2021/01/13 08:37:18;;;;;;;5.40;3.58;;;2.70;1.00;;;;;;5125934;27;20211;-86
2021/01/13 08:44:16;;;;;;;5.18;4.00;;;2.60;1.00;;;;;;4949815;28;20206;-86
2021/01/13 08:51:23;;;;;;;5.55;3.53;;;2.70;1.00;;;;;;5089516;27;20222;-89
2021/01/13 08:54:25;;;;;;;7.35;3.88;;;2.80;1.00;;;;;;5142954;27;20298;-87
2021/01/13 09:01:20;;;;;;;6.22;3.60;;;2.90;1.00;;;;;;5054164;28;20237;-85
2021/01/13 09:04:36;;;;;;;12.30;3.47;;;2.90;1.00;;;;;;5118927;27;20314;-88
2021/01/13 09:08:09;;;;;;;8.27;3.40;;;3.00;1.00;;;;;;5127469;27;20239;-88
2021/01/13 09:22:01;;;;;;;4.93;3.35;;;3.30;1.00;;;;;;5111885;27;20245;-86
2021/01/13 09:25:40;;;;;;;7.15;3.53;;;3.30;1.00;;;;;;5143491;27;20228;-85
2021/01/13 09:28:18;;;;;;;9.35;3.55;;;3.30;1.00;;;;;;5059210;27;20484;-85
2021/01/13 09:34:39;;;;;;;3.45;2.53;;;3.30;1.00;;;;;;5142751;27;20284;-85
2021/01/13 09:37:16;;;;;;;4.72;3.00;;;3.40;1.00;;;;;;5124554;27;20220;-87
2021/01/13 09:40:56;;;;;;;;;;;;;;;;;;;;;
2021/01/13 09:43:26;;;;;;;4.55;2.80;;;3.40;1.00;;;;;;5128841;27;20203;-87
2021/01/13 09:45:58;;;;;;;5.85;2.60;;;3.40;1.00;;;;;;5150232;27;20238;-87
2021/01/13 09:49:07;;;;;;;9.45;4.47;;;3.40;1.00;;;;;;5125515;27;20298;-86
2021/01/13 09:51:47;;;;;;;6.55;3.65;;;3.40;1.00;;;;;;5124184;27;20223;-86
2021/01/13 09:54:25;;;;;;;7.10;3.38;;;3.50;1.00;;;;;;5125102;27;20214;-85
2021/01/13 09:57:04;;;;;;;6.22;2.25;;;3.50;1.00;;;;;;5142333;27;20225;-86
2021/01/13 09:59:40;;;;;;;3.70;3.15;;;3.60;1.00;;;;;;5126847;27;20295;-85
2021/01/13 10:02:38;;;;;;;6.93;2.58;;;3.80;1.00;;;;;;5132875;27;20237;-85
2021/01/13 10:05:32;;;;;;;;;;;;;;;;;;;;;
2021/01/13 10:08:01;;;;;;;7.85;2.92;;;3.80;1.00;;;;;;5123486;27;20815;-85
2021/01/13 10:10:37;;;;;;;6.28;3.72;;;3.90;1.00;;;;;;5144915;27;20228;-85
2021/01/13 10:13:15;;;;;;;5.28;3.42;;;3.90;1.00;;;;;;5146805;27;20211;-84
2021/01/13 10:15:42;;;;;;;4.72;2.67;;;3.90;1.00;;;;;;5165870;27;20203;-83
2021/01/13 10:18:09;;;;;;;4.13;2.40;;;3.80;1.00;;;;;;5133342;27;20226;-87
2021/01/13 10:20:38;;;;;;;5.68;2.72;;;3.70;1.00;;;;;;5147882;27;20226;-86
2021/01/13 10:23:07;;;;;;;6.03;2.45;;;3.80;1.00;;;;;;5125737;27;20224;-87
2021/01/13 10:25:34;;;;;;;5.38;2.60;;;3.80;1.00;;;;;;5127604;27;20223;-87
2021/01/13 10:28:03;;;;;;;5.85;2.28;;;3.70;1.00;;;;;;5124534;27;20227;-85
2021/01/13 10:30:31;;;;;;;4.03;2.63;;;3.80;1.00;;;;;;5119637;27;20233;-85
2021/01/13 10:33:11;;;;;;;6.95;2.47;;;3.80;1.00;;;;;;5126677;27;20254;-86
2021/01/13 10:35:40;;;;;;;2.38;2.20;;;3.80;1.00;;;;;;5142606;27;20299;-88
2021/01/13 10:38:11;;;;;;;4.22;2.55;;;3.90;1.00;;;;;;5116731;27;20223;-86
2021/01/13 10:40:59;;;;;;;5.05;3.08;;;3.90;1.00;;;;;;5138503;27;20286;-85
2021/01/13 10:43:38;;;;;;;5.10;2.78;;;3.90;1.00;;;;;;5125742;27;20219;-86
2021/01/13 10:46:17;;;;;;;4.03;2.40;;;3.90;1.00;;;;;;5129824;27;20242;-87
2021/01/13 10:48:55;;;;;;;5.00;2.75;;;3.90;1.00;;;;;;5117619;27;20409;-86
2021/01/13 10:51:32;;;;;;;6.68;3.35;;;4.10;1.00;;;;;;5143755;27;20794;-86
2021/01/13 10:54:04;;;;;;;5.10;2.92;;;4.00;1.00;;;;;;5127538;27;20211;-84
2021/01/13 10:56:33;;;;;;;3.55;2.35;;;4.00;1.00;;;;;;5148934;27;20220;-85
2021/01/13 10:59:05;;;;;;;4.50;2.20;;;4.00;1.00;;;;;;5143875;27;20211;-84
2021/01/13 11:01:45;;;;;;;5.18;2.28;;;3.90;1.00;;;;;;5134312;27;20208;-85
2021/01/13 11:04:24;;;;;;;6.13;3.13;;;3.90;1.00;;;;;;5117610;27;20235;-86
2021/01/13 11:07:12;;;;;;;7.25;2.58;;;3.90;1.00;;;;;;5140816;27;20222;-86
2021/01/13 11:09:43;;;;;;;7.00;2.85;;;3.80;1.00;;;;;;5121422;27;20275;-87
2021/01/13 11:12:17;;;;;;;6.38;3.00;;;3.80;1.00;;;;;;5121553;27;20226;-88
2021/01/13 11:14:48;;;;;;;6.18;3.35;;;3.80;1.00;;;;;;5137292;27;20206;-85
2021/01/13 11:17:17;;;;;;;5.95;2.78;;;3.90;1.00;;;;;;5121604;27;20216;-86
2021/01/13 11:19:46;;;;;;;4.07;2.50;;;3.90;1.00;;;;;;5147311;27;20234;-85
2021/01/13 11:22:15;;;;;;;4.78;2.30;;;3.90;1.00;;;;;;5140106;27;20643;-85
2021/01/13 11:24:47;;;;;;;8.40;2.97;;;3.90;1.00;;;;;;5130299;27;20217;-86
2021/01/13 11:27:17;;;;;;;5.25;2.30;;;3.90;1.00;;;;;;5120472;27;20228;-87
2021/01/13 11:29:46;;;;;;;6.00;3.30;;;3.90;1.00;;;;;;5142915;27;20218;-86
2021/01/13 11:32:16;;;;;;;4.55;2.50;;;4.00;1.00;;;;;;5120475;27;20212;-86
2021/01/13 11:34:48;;;;;;;6.88;3.03;;;4.00;1.00;;;;;;5120232;27;20234;-86
2021/01/13 11:37:58;;;;;;;3.90;2.67;;;4.10;1.00;;;;;;5132942;27;20231;-88
2021/01/13 11:40:36;;;;;;;5.57;2.03;;;4.10;1.00;;;;;;5041831;28;20230;-87
2021/01/13 11:43:42;;;;;;;7.95;2.15;;;4.10;1.00;;;;;;5067247;28;20233;-87
2021/01/13 11:46:14;;;;;;;8.40;2.80;;;4.10;1.00;;;;;;5122061;27;20325;-88
2021/01/13 11:53:12;;;;;;;5.00;2.92;;;4.10;1.00;;;;;;5139909;27;20422;-86
2021/01/13 11:55:39;;;;;;;4.13;2.40;;;4.10;1.00;;;;;;5140598;27;20211;-87
2021/01/13 11:58:08;;;;;;;6.28;2.72;;;4.10;1.00;;;;;;5126115;27;20295;-89
2021/01/13 12:00:40;;;;;;;8.35;3.15;;;4.10;1.00;;;;;;5130564;27;20227;-89
2021/01/13 12:03:07;;;;;;;3.63;2.55;;;4.10;1.00;;;;;;5133416;27;20212;-88
2021/01/13 12:05:35;;;;;;;5.97;3.30;;;4.10;1.00;;;;;;5139915;27;20352;-86
2021/01/13 12:08:04;;;;;;;8.60;4.72;;;4.20;1.00;;;;;;5120188;27;20242;-88
2021/01/13 12:10:35;;;;;;;7.95;2.95;;;4.30;1.00;;;;;;5120753;27;20219;-87
2021/01/13 12:13:21;;;;;;;8.93;3.00;;;4.40;1.00;;;;;;5119795;27;20242;-86
2021/01/13 12:15:56;;;;;;;5.25;2.47;;;4.70;1.00;;;;;;5135104;27;20234;-87
2021/01/13 12:18:25;;;;;;;4.97;2.58;;;4.70;1.00;;;;;;5112736;27;20289;-86
2021/01/13 12:20:54;;;;;;;5.25;2.75;;;4.70;1.00;;;;;;5122987;27;20384;-86
2021/01/13 12:23:31;;;;;;;6.05;3.08;;;4.70;1.00;;;;;;5119703;27;20223;-88
2021/01/13 12:26:19;;;;;;;3.95;3.10;;;4.60;1.00;;;;;;5137460;27;20231;-86
2021/01/13 12:28:48;;;;;;;15.40;2.92;;;4.60;1.00;;;;;;5114126;28;20249;-86
2021/01/13 12:31:16;;;;;;;4.28;1.83;;;4.60;1.00;;;;;;5118307;28;20225;-86
2021/01/13 12:33:51;;;;;;;3.15;2.45;;;4.70;1.00;;;;;;5116420;27;20271;-85
2021/01/13 12:36:22;;;;;;;3.20;2.65;;;4.70;1.00;;;;;;5113308;27;20288;-85
2021/01/13 12:38:49;;;;;;;3.50;2.25;;;4.80;1.00;;;;;;5134302;27;20226;-84
2021/01/13 12:41:21;;;;;;;3.65;2.22;;;4.70;1.00;;;;;;5146268;27;20204;-84
2021/01/13 12:43:49;;;;;;;5.85;3.33;;;4.70;1.00;;;;;;5149368;27;20216;-84
2021/01/13 12:46:25;;;;;;;5.30;2.80;;;4.70;1.00;;;;;;5138481;27;20456;-87
2021/01/13 12:48:52;;;;;;;6.53;2.92;;;4.70;1.00;;;;;;5123590;27;20253;-85
2021/01/13 12:51:20;;;;;;;7.45;3.10;;;4.70;1.00;;;;;;5125524;27;20257;-89
2021/01/13 12:53:48;;;;;;;8.00;3.10;;;4.70;1.00;;;;;;5125205;27;20243;-87
2021/01/13 12:56:23;;;;;;;4.70;3.10;;;4.70;1.00;;;;;;5122418;28;21195;-87
2021/01/13 12:58:53;;;;;;;5.97;3.72;;;4.70;1.00;;;;;;5150531;27;20229;-87
2021/01/13 13:01:20;;;;;;;4.28;3.08;;;4.70;1.00;;;;;;5123078;27;20267;-88
2021/01/13 13:03:48;;;;;;;7.90;3.05;;;4.80;1.00;;;;;;5129951;27;20307;-88
2021/01/13 13:06:25;;;;;;;9.85;5.93;;;4.80;1.00;;;;;;5119030;27;20216;-86
2021/01/13 13:08:52;;;;;;;7.18;3.00;;;4.80;1.00;;;;;;5115190;27;20222;-85
2021/01/13 13:11:18;;;;;;;4.50;2.55;;;4.80;1.00;;;;;;5118503;27;20234;-85
2021/01/13 13:13:45;;;;;;;8.48;2.67;;;4.80;1.00;;;;;;5124540;27;20230;-86
2021/01/13 13:16:13;;;;;;;3.28;2.55;;;4.70;1.00;;;;;;5120523;27;20227;-86
2021/01/13 13:18:40;;;;;;;6.18;2.60;;;4.60;1.00;;;;;;5135040;27;20255;-87
2021/01/13 13:21:12;;;;;;;8.27;3.40;;;4.50;1.00;;;;;;5113402;27;20335;-88
2021/01/13 13:23:42;;;;;;;4.43;2.85;;;4.50;1.00;;;;;;5140518;27;20225;-88
2021/01/13 13:26:11;;;;;;;5.15;4.13;;;4.50;1.00;;;;;;5115181;28;20228;-87
2021/01/13 13:28:39;;;;;;;5.45;3.47;;;4.50;1.00;;;;;;5122624;27;20227;-88
2021/01/13 13:31:06;;;;;;;5.68;3.40;;;4.40;1.00;;;;;;5146908;27;20211;-87
2021/01/13 13:33:36;;;;;;;6.90;3.38;;;4.50;1.00;;;;;;5151243;27;20222;-87
2021/01/13 13:36:05;;;;;;;6.22;3.08;;;4.50;1.00;;;;;;5126873;27;20235;-88
2021/01/13 13:38:32;;;;;;;4.63;2.75;;;4.50;1.00;;;;;;5130309;27;21122;-87
2021/01/13 13:41:10;;;;;;;6.15;2.80;;;4.50;1.00;;;;;;5138858;27;20238;-86
2021/01/13 13:43:37;;;;;;;4.55;2.60;;;4.50;1.00;;;;;;5125515;27;20249;-87
2021/01/13 13:46:06;;;;;;;7.85;3.13;;;4.60;1.00;;;;;;5142957;27;20231;-89
2021/01/13 13:48:34;;;;;;;7.55;3.58;;;4.60;1.00;;;;;;5125835;27;20215;-87
2021/01/13 13:51:02;;;;;;;10.23;3.65;;;4.60;1.00;;;;;;5130733;27;20223;-86
2021/01/13 13:53:52;;;;;;;12.02;3.35;;;4.60;1.00;;;;;;5140622;27;20219;-87
2021/01/13 13:56:19;;;;;;;5.20;2.85;;;4.50;1.00;;;;;;5132727;27;20220;-89
2021/01/13 13:58:48;;;;;;;8.00;3.30;;;4.40;1.00;;;;;;5135376;27;20414;-85
2021/01/13 14:01:14;;;;;;;6.55;3.50;;;4.30;1.00;;;;;;5116157;27;20382;-86
2021/01/13 14:03:42;;;;;;;7.35;2.65;;;4.40;1.00;;;;;;5117387;27;20876;-87
2021/01/13 14:06:09;;;;;;;6.28;2.53;;;4.30;1.00;;;;;;5132881;27;20394;-86
2021/01/13 14:08:36;;;;;;;5.65;2.92;;;4.30;1.00;;;;;;5122633;27;20222;-87
2021/01/13 14:11:02;;;;;;;4.32;3.00;;;4.30;1.00;;;;;;5122210;27;20239;-87
2021/01/13 14:13:29;;;;;;;5.53;3.28;;;4.30;1.00;;;;;;5117160;27;20227;-86
2021/01/13 14:15:56;;;;;;;4.80;2.85;;;4.30;1.00;;;;;;5128659;27;20215;-85
2021/01/13 14:18:22;;;;;;;5.53;2.45;;;4.40;1.00;;;;;;5135091;27;20229;-85
2021/01/13 14:20:50;;;;;;;6.70;3.10;;;4.30;1.00;;;;;;5125286;27;20230;-86
2021/01/13 14:23:17;;;;;;;8.70;3.45;;;4.30;1.00;;;;;;5118150;27;20204;-85
2021/01/13 14:25:47;;;;;;;4.60;2.83;;;4.30;1.00;;;;;;5126413;27;20282;-87
2021/01/13 14:28:13;;;;;;;6.10;2.70;;;4.30;1.00;;;;;;5141790;27;20250;-86
2021/01/13 14:30:40;;;;;;;9.32;2.50;;;4.30;1.00;;;;;;5130818;27;20223;-85
2021/01/13 14:33:07;;;;;;;17.83;9.05;;;4.30;1.00;;;;;;5136843;27;20219;-87
2021/01/13 16:03:07;;;;;;;8.35;5.85;;;3.60;1.00;;;;;;5132263;27;20207;-87
2021/01/13 16:05:35;;;;;;;7.57;3.97;;;3.60;1.00;;;;;;5134291;27;20460;-86
2021/01/13 16:08:03;;;;;;;7.65;3.03;;;3.60;1.00;;;;;;5112461;27;20243;-85
2021/01/13 16:10:30;;;;;;;8.13;3.60;;;3.60;1.00;;;;;;5110679;27;20220;-85
2021/01/13 16:12:58;;;;;;;7.40;3.35;;;3.60;1.00;;;;;;5107775;28;20714;-87
2021/01/13 16:15:26;;;;;;;5.90;3.08;;;3.60;1.00;;;;;;5110429;28;20503;-86
2021/01/13 16:17:55;;;;;;;6.40;2.70;;;3.60;1.00;;;;;;5108584;28;20250;-87
2021/01/13 16:20:25;;;;;;;6.50;3.45;;;3.50;1.00;;;;;;5100772;28;20228;-85